sensor_id;sensor_type;location;lat;lon;timestamp;pressure;altitude;pressure_sealevel;temperature
19644;BMP180;9970;-36.854;174.870;2022-11-02T00:01:38;100879.00;;;22.50
19644;BMP180;9970;-36.854;174.870;2022-11-02T00:04:11;100862.00;;;22.50
19644;BMP180;9970;-36.854;174.870;2022-11-02T00:06:44;100868.00;;;22.40
19644;BMP180;9970;-36.854;174.870;2022-11-02T00:09:17;100866.00;;;22.40
19644;BMP180;9970;-36.854;174.870;2022-11-02T00:11:50;100879.00;;;22.50
19644;BMP180;9970;-36.854;174.870;2022-11-02T00:14:23;100881.00;;;22.50
19644;BMP180;9970;-36.854;174.870;2022-11-02T00:16:56;100866.00;;;22.40
19644;BMP180;9970;-36.854;174.870;2022-11-02T00:19:29;100861.00;;;22.40
19644;BMP180;9970;-36.854;174.870;2022-11-02T00:22:02;100867.00;;;22.40
19644;BMP180;9970;-36.854;174.870;2022-11-02T00:24:36;100864.00;;;22.40
19644;BMP180;9970;-36.854;174.870;2022-11-02T00:27:09;100846.00;;;22.40
19644;BMP180;9970;-36.854;174.870;2022-11-02T00:29:43;100851.00;;;22.40
19644;BMP180;9970;-36.854;174.870;2022-11-02T00:32:16;100850.00;;;22.40
19644;BMP180;9970;-36.854;174.870;2022-11-02T00:34:49;100855.00;;;22.40
19644;BMP180;9970;-36.854;174.870;2022-11-02T00:37:23;100847.00;;;22.40
19644;BMP180;9970;-36.854;174.870;2022-11-02T00:39:57;100855.00;;;22.40
19644;BMP180;9970;-36.854;174.870;2022-11-02T00:42:30;100847.00;;;22.40
19644;BMP180;9970;-36.854;174.870;2022-11-02T00:45:07;100857.00;;;22.30
19644;BMP180;9970;-36.854;174.870;2022-11-02T00:47:41;100845.00;;;22.30
19644;BMP180;9970;-36.854;174.870;2022-11-02T00:50:14;100852.00;;;22.20
19644;BMP180;9970;-36.854;174.870;2022-11-02T00:52:47;100847.00;;;22.20
19644;BMP180;9970;-36.854;174.870;2022-11-02T00:55:20;100864.00;;;22.20
19644;BMP180;9970;-36.854;174.870;2022-11-02T00:57:53;100857.00;;;22.20
19644;BMP180;9970;-36.854;174.870;2022-11-02T01:00:26;100866.00;;;22.20
19644;BMP180;9970;-36.854;174.870;2022-11-02T01:03:04;100868.00;;;22.20
19644;BMP180;9970;-36.854;174.870;2022-11-02T01:05:38;100873.00;;;22.20
19644;BMP180;9970;-36.854;174.870;2022-11-02T01:08:11;100878.00;;;22.20
19644;BMP180;9970;-36.854;174.870;2022-11-02T01:10:44;100876.00;;;22.20
19644;BMP180;9970;-36.854;174.870;2022-11-02T01:13:16;100875.00;;;22.20
19644;BMP180;9970;-36.854;174.870;2022-11-02T01:15:50;100885.00;;;22.20
19644;BMP180;9970;-36.854;174.870;2022-11-02T01:18:23;100876.00;;;22.10
19644;BMP180;9970;-36.854;174.870;2022-11-02T01:20:59;100874.00;;;22.10
19644;BMP180;9970;-36.854;174.870;2022-11-02T01:23:33;100882.00;;;22.20
19644;BMP180;9970;-36.854;174.870;2022-11-02T01:26:07;100872.00;;;22.20
19644;BMP180;9970;-36.854;174.870;2022-11-02T01:28:43;100881.00;;;22.20
19644;BMP180;9970;-36.854;174.870;2022-11-02T01:31:17;100868.00;;;22.20
19644;BMP180;9970;-36.854;174.870;2022-11-02T01:33:51;100866.00;;;22.20
19644;BMP180;9970;-36.854;174.870;2022-11-02T01:36:24;100869.00;;;22.20
19644;BMP180;9970;-36.854;174.870;2022-11-02T01:38:57;100858.00;;;22.20
19644;BMP180;9970;-36.854;174.870;2022-11-02T01:41:31;100859.00;;;22.10
19644;BMP180;9970;-36.854;174.870;2022-11-02T01:44:19;100848.00;;;22.10
19644;BMP180;9970;-36.854;174.870;2022-11-02T01:46:40;100846.00;;;22.10
19644;BMP180;9970;-36.854;174.870;2022-11-02T01:49:16;100860.00;;;22.10
19644;BMP180;9970;-36.854;174.870;2022-11-02T01:52:05;100853.00;;;22.10
19644;BMP180;9970;-36.854;174.870;2022-11-02T01:54:40;100844.00;;;22.10
19644;BMP180;9970;-36.854;174.870;2022-11-02T01:57:14;100839.00;;;22.10
19644;BMP180;9970;-36.854;174.870;2022-11-02T02:00:07;100852.00;;;22.10
19644;BMP180;9970;-36.854;174.870;2022-11-02T02:02:41;100844.00;;;22.10
19644;BMP180;9970;-36.854;174.870;2022-11-02T02:05:16;100846.00;;;22.10
19644;BMP180;9970;-36.854;174.870;2022-11-02T02:07:50;100839.00;;;22.00
19644;BMP180;9970;-36.854;174.870;2022-11-02T02:10:23;100846.00;;;22.00
19644;BMP180;9970;-36.854;174.870;2022-11-02T02:12:56;100839.00;;;22.00
19644;BMP180;9970;-36.854;174.870;2022-11-02T02:15:48;100834.00;;;22.00
19644;BMP180;9970;-36.854;174.870;2022-11-02T02:18:22;100833.00;;;22.00
19644;BMP180;9970;-36.854;174.870;2022-11-02T02:21:15;100829.00;;;22.00
19644;BMP180;9970;-36.854;174.870;2022-11-02T02:29:13;100833.00;;;21.90
19644;BMP180;9970;-36.854;174.870;2022-11-02T02:31:50;100835.00;;;21.90
19644;BMP180;9970;-36.854;174.870;2022-11-02T02:34:23;100839.00;;;21.80
19644;BMP180;9970;-36.854;174.870;2022-11-02T02:37:00;100824.00;;;21.80
19644;BMP180;9970;-36.854;174.870;2022-11-02T02:39:50;100817.00;;;21.80
19644;BMP180;9970;-36.854;174.870;2022-11-02T02:45:26;100824.00;;;21.80
19644;BMP180;9970;-36.854;174.870;2022-11-02T02:48:04;100819.00;;;21.80
19644;BMP180;9970;-36.854;174.870;2022-11-02T02:50:35;100823.00;;;21.70
19644;BMP180;9970;-36.854;174.870;2022-11-02T02:53:08;100810.00;;;21.70
19644;BMP180;9970;-36.854;174.870;2022-11-02T02:55:47;100817.00;;;21.70
19644;BMP180;9970;-36.854;174.870;2022-11-02T02:58:31;100811.00;;;21.60
19644;BMP180;9970;-36.854;174.870;2022-11-02T03:01:05;100807.00;;;21.60
19644;BMP180;9970;-36.854;174.870;2022-11-02T03:03:40;100812.00;;;21.60
19644;BMP180;9970;-36.854;174.870;2022-11-02T03:06:19;100806.00;;;21.50
19644;BMP180;9970;-36.854;174.870;2022-11-02T03:11:38;100811.00;;;21.50
19644;BMP180;9970;-36.854;174.870;2022-11-02T03:14:20;100808.00;;;21.50
19644;BMP180;9970;-36.854;174.870;2022-11-02T03:17:14;100799.00;;;21.50
19644;BMP180;9970;-36.854;174.870;2022-11-02T03:25:29;100785.00;;;21.30
19644;BMP180;9970;-36.854;174.870;2022-11-02T03:28:08;100775.00;;;21.20
19644;BMP180;9970;-36.854;174.870;2022-11-02T03:30:40;100780.00;;;21.20
19644;BMP180;9970;-36.854;174.870;2022-11-02T03:33:24;100781.00;;;21.20
19644;BMP180;9970;-36.854;174.870;2022-11-02T03:36:09;100791.00;;;21.20
19644;BMP180;9970;-36.854;174.870;2022-11-02T03:38:44;100775.00;;;21.20
19644;BMP180;9970;-36.854;174.870;2022-11-02T03:41:19;100769.00;;;21.20
19644;BMP180;9970;-36.854;174.870;2022-11-02T03:43:56;100774.00;;;21.10
19644;BMP180;9970;-36.854;174.870;2022-11-02T03:46:28;100769.00;;;21.10
19644;BMP180;9970;-36.854;174.870;2022-11-02T03:49:03;100776.00;;;21.10
19644;BMP180;9970;-36.854;174.870;2022-11-02T03:51:38;100774.00;;;21.00
19644;BMP180;9970;-36.854;174.870;2022-11-02T03:55:06;100762.00;;;21.00
19644;BMP180;9970;-36.854;174.870;2022-11-02T03:56:55;100767.00;;;21.00
19644;BMP180;9970;-36.854;174.870;2022-11-02T03:59:29;100757.00;;;20.90
19644;BMP180;9970;-36.854;174.870;2022-11-02T04:02:02;100758.00;;;20.90
19644;BMP180;9970;-36.854;174.870;2022-11-02T04:04:57;100762.00;;;20.90
19644;BMP180;9970;-36.854;174.870;2022-11-02T04:07:11;100753.00;;;20.90
19644;BMP180;9970;-36.854;174.870;2022-11-02T04:09:47;100763.00;;;20.90
19644;BMP180;9970;-36.854;174.870;2022-11-02T04:12:23;100760.00;;;20.90
19644;BMP180;9970;-36.854;174.870;2022-11-02T04:15:16;100764.00;;;20.80
19644;BMP180;9970;-36.854;174.870;2022-11-02T04:17:50;100754.00;;;20.80
19644;BMP180;9970;-36.854;174.870;2022-11-02T04:20:40;100749.00;;;20.70
19644;BMP180;9970;-36.854;174.870;2022-11-02T04:23:19;100763.00;;;20.70
19644;BMP180;9970;-36.854;174.870;2022-11-02T04:26:09;100756.00;;;20.70
19644;BMP180;9970;-36.854;174.870;2022-11-02T04:28:42;100758.00;;;20.70
19644;BMP180;9970;-36.854;174.870;2022-11-02T04:31:17;100749.00;;;20.70
19644;BMP180;9970;-36.854;174.870;2022-11-02T04:33:50;100749.00;;;20.70
19644;BMP180;9970;-36.854;174.870;2022-11-02T04:36:23;100749.00;;;20.60
19644;BMP180;9970;-36.854;174.870;2022-11-02T04:38:59;100749.00;;;20.60
19644;BMP180;9970;-36.854;174.870;2022-11-02T04:41:35;100760.00;;;20.60
19644;BMP180;9970;-36.854;174.870;2022-11-02T04:44:16;100751.00;;;20.60
19644;BMP180;9970;-36.854;174.870;2022-11-02T04:46:51;100755.00;;;20.60
19644;BMP180;9970;-36.854;174.870;2022-11-02T04:49:24;100750.00;;;20.60
19644;BMP180;9970;-36.854;174.870;2022-11-02T04:51:57;100765.00;;;20.60
19644;BMP180;9970;-36.854;174.870;2022-11-02T04:54:30;100769.00;;;20.60
19644;BMP180;9970;-36.854;174.870;2022-11-02T04:57:03;100772.00;;;20.60
19644;BMP180;9970;-36.854;174.870;2022-11-02T04:59:36;100766.00;;;20.60
19644;BMP180;9970;-36.854;174.870;2022-11-02T05:02:09;100782.00;;;20.60
19644;BMP180;9970;-36.854;174.870;2022-11-02T05:04:42;100777.00;;;20.60
19644;BMP180;9970;-36.854;174.870;2022-11-02T05:07:18;100764.00;;;20.60
19644;BMP180;9970;-36.854;174.870;2022-11-02T05:09:51;100757.00;;;20.60
19644;BMP180;9970;-36.854;174.870;2022-11-02T05:12:25;100760.00;;;20.50
19644;BMP180;9970;-36.854;174.870;2022-11-02T05:14:59;100770.00;;;20.50
19644;BMP180;9970;-36.854;174.870;2022-11-02T05:17:32;100765.00;;;20.50
19644;BMP180;9970;-36.854;174.870;2022-11-02T05:22:57;100765.00;;;20.40
19644;BMP180;9970;-36.854;174.870;2022-11-02T05:25:31;100768.00;;;20.40
19644;BMP180;9970;-36.854;174.870;2022-11-02T05:28:05;100775.00;;;20.40
19644;BMP180;9970;-36.854;174.870;2022-11-02T05:30:38;100775.00;;;20.40
19644;BMP180;9970;-36.854;174.870;2022-11-02T05:33:18;100767.00;;;20.40
19644;BMP180;9970;-36.854;174.870;2022-11-02T05:35:56;100772.00;;;20.40
19644;BMP180;9970;-36.854;174.870;2022-11-02T05:38:29;100784.00;;;20.30
19644;BMP180;9970;-36.854;174.870;2022-11-02T05:41:04;100778.00;;;20.30
19644;BMP180;9970;-36.854;174.870;2022-11-02T05:43:38;100773.00;;;20.30
19644;BMP180;9970;-36.854;174.870;2022-11-02T05:46:18;100783.00;;;20.30
19644;BMP180;9970;-36.854;174.870;2022-11-02T05:48:51;100776.00;;;20.30
19644;BMP180;9970;-36.854;174.870;2022-11-02T05:51:24;100774.00;;;20.30
19644;BMP180;9970;-36.854;174.870;2022-11-02T05:53:57;100774.00;;;20.30
19644;BMP180;9970;-36.854;174.870;2022-11-02T05:56:31;100777.00;;;20.30
19644;BMP180;9970;-36.854;174.870;2022-11-02T05:59:05;100784.00;;;20.30
19644;BMP180;9970;-36.854;174.870;2022-11-02T06:01:41;100789.00;;;20.30
19644;BMP180;9970;-36.854;174.870;2022-11-02T06:04:22;100796.00;;;20.30
19644;BMP180;9970;-36.854;174.870;2022-11-02T06:06:58;100795.00;;;20.20
19644;BMP180;9970;-36.854;174.870;2022-11-02T06:09:39;100803.00;;;20.20
19644;BMP180;9970;-36.854;174.870;2022-11-02T06:12:12;100806.00;;;20.20
19644;BMP180;9970;-36.854;174.870;2022-11-02T06:14:52;100811.00;;;20.20
19644;BMP180;9970;-36.854;174.870;2022-11-02T06:17:38;100810.00;;;20.10
19644;BMP180;9970;-36.854;174.870;2022-11-02T06:20:12;100820.00;;;20.10
19644;BMP180;9970;-36.854;174.870;2022-11-02T06:22:49;100820.00;;;20.10
19644;BMP180;9970;-36.854;174.870;2022-11-02T06:25:22;100821.00;;;20.10
19644;BMP180;9970;-36.854;174.870;2022-11-02T06:27:57;100827.00;;;20.10
19644;BMP180;9970;-36.854;174.870;2022-11-02T06:30:31;100820.00;;;20.10
19644;BMP180;9970;-36.854;174.870;2022-11-02T06:33:05;100818.00;;;20.10
19644;BMP180;9970;-36.854;174.870;2022-11-02T06:35:46;100800.00;;;20.10
19644;BMP180;9970;-36.854;174.870;2022-11-02T06:38:20;100802.00;;;20.00
19644;BMP180;9970;-36.854;174.870;2022-11-02T06:41:01;100814.00;;;20.00
19644;BMP180;9970;-36.854;174.870;2022-11-02T06:43:36;100803.00;;;20.10
19644;BMP180;9970;-36.854;174.870;2022-11-02T06:46:19;100809.00;;;20.00
19644;BMP180;9970;-36.854;174.870;2022-11-02T06:48:52;100816.00;;;20.00
19644;BMP180;9970;-36.854;174.870;2022-11-02T06:51:30;100809.00;;;20.00
19644;BMP180;9970;-36.854;174.870;2022-11-02T06:54:05;100793.00;;;20.00
19644;BMP180;9970;-36.854;174.870;2022-11-02T06:56:38;100792.00;;;20.00
19644;BMP180;9970;-36.854;174.870;2022-11-02T06:59:11;100791.00;;;20.00
19644;BMP180;9970;-36.854;174.870;2022-11-02T07:01:45;100793.00;;;20.00
19644;BMP180;9970;-36.854;174.870;2022-11-02T07:04:19;100789.00;;;20.00
19644;BMP180;9970;-36.854;174.870;2022-11-02T07:06:52;100793.00;;;20.00
19644;BMP180;9970;-36.854;174.870;2022-11-02T07:09:25;100797.00;;;19.90
19644;BMP180;9970;-36.854;174.870;2022-11-02T07:11:59;100791.00;;;20.00
19644;BMP180;9970;-36.854;174.870;2022-11-02T07:14:38;100781.00;;;20.00
19644;BMP180;9970;-36.854;174.870;2022-11-02T07:17:12;100777.00;;;20.00
19644;BMP180;9970;-36.854;174.870;2022-11-02T07:19:45;100776.00;;;20.00
19644;BMP180;9970;-36.854;174.870;2022-11-02T07:22:18;100767.00;;;19.90
19644;BMP180;9970;-36.854;174.870;2022-11-02T07:24:54;100766.00;;;19.90
19644;BMP180;9970;-36.854;174.870;2022-11-02T07:27:27;100756.00;;;20.00
19644;BMP180;9970;-36.854;174.870;2022-11-02T07:30:00;100754.00;;;19.90
19644;BMP180;9970;-36.854;174.870;2022-11-02T07:32:38;100764.00;;;19.90
19644;BMP180;9970;-36.854;174.870;2022-11-02T07:35:11;100775.00;;;19.90
19644;BMP180;9970;-36.854;174.870;2022-11-02T07:37:57;100762.00;;;19.90
19644;BMP180;9970;-36.854;174.870;2022-11-02T07:40:31;100768.00;;;19.90
19644;BMP180;9970;-36.854;174.870;2022-11-02T07:43:10;100766.00;;;19.80
19644;BMP180;9970;-36.854;174.870;2022-11-02T07:45:51;100775.00;;;19.80
19644;BMP180;9970;-36.854;174.870;2022-11-02T07:48:38;100768.00;;;19.80
19644;BMP180;9970;-36.854;174.870;2022-11-02T07:51:14;100773.00;;;19.80
19644;BMP180;9970;-36.854;174.870;2022-11-02T07:53:47;100765.00;;;19.80
19644;BMP180;9970;-36.854;174.870;2022-11-02T07:56:22;100778.00;;;19.80
19644;BMP180;9970;-36.854;174.870;2022-11-02T07:59:05;100788.00;;;19.80
19644;BMP180;9970;-36.854;174.870;2022-11-02T08:01:38;100779.00;;;19.80
19644;BMP180;9970;-36.854;174.870;2022-11-02T08:04:28;100787.00;;;19.80
19644;BMP180;9970;-36.854;174.870;2022-11-02T08:07:02;100786.00;;;19.70
19644;BMP180;9970;-36.854;174.870;2022-11-02T08:09:35;100784.00;;;19.70
19644;BMP180;9970;-36.854;174.870;2022-11-02T08:12:13;100786.00;;;19.70
19644;BMP180;9970;-36.854;174.870;2022-11-02T08:14:47;100779.00;;;19.70
19644;BMP180;9970;-36.854;174.870;2022-11-02T08:20:18;100779.00;;;19.70
19644;BMP180;9970;-36.854;174.870;2022-11-02T08:26:48;100789.00;;;19.70
19644;BMP180;9970;-36.854;174.870;2022-11-02T08:30:21;100797.00;;;19.70
19644;BMP180;9970;-36.854;174.870;2022-11-02T08:39:50;100802.00;;;19.60
19644;BMP180;9970;-36.854;174.870;2022-11-02T08:45:56;100789.00;;;19.50
19644;BMP180;9970;-36.854;174.870;2022-11-02T08:49:00;100791.00;;;19.50
19644;BMP180;9970;-36.854;174.870;2022-11-02T08:51:58;100793.00;;;19.50
19644;BMP180;9970;-36.854;174.870;2022-11-02T08:54:46;100781.00;;;19.50
19644;BMP180;9970;-36.854;174.870;2022-11-02T08:57:23;100780.00;;;19.50
19644;BMP180;9970;-36.854;174.870;2022-11-02T09:03:05;100774.00;;;19.50
19644;BMP180;9970;-36.854;174.870;2022-11-02T09:06:08;100782.00;;;19.50
19644;BMP180;9970;-36.854;174.870;2022-11-02T09:08:50;100784.00;;;19.50
19644;BMP180;9970;-36.854;174.870;2022-11-02T09:11:37;100783.00;;;19.50
19644;BMP180;9970;-36.854;174.870;2022-11-02T09:23:24;100794.00;;;19.50
19644;BMP180;9970;-36.854;174.870;2022-11-02T09:26:23;100786.00;;;19.50
19644;BMP180;9970;-36.854;174.870;2022-11-02T09:29:03;100797.00;;;19.50
19644;BMP180;9970;-36.854;174.870;2022-11-02T09:31:43;100794.00;;;19.50
19644;BMP180;9970;-36.854;174.870;2022-11-02T09:34:33;100791.00;;;19.50
19644;BMP180;9970;-36.854;174.870;2022-11-02T09:37:14;100787.00;;;19.50
19644;BMP180;9970;-36.854;174.870;2022-11-02T09:39:56;100783.00;;;19.50
19644;BMP180;9970;-36.854;174.870;2022-11-02T09:42:50;100795.00;;;19.50
19644;BMP180;9970;-36.854;174.870;2022-11-02T09:45:30;100801.00;;;19.50
19644;BMP180;9970;-36.854;174.870;2022-11-02T09:48:18;100806.00;;;19.50
19644;BMP180;9970;-36.854;174.870;2022-11-02T09:56:30;100796.00;;;19.50
19644;BMP180;9970;-36.854;174.870;2022-11-02T09:59:07;100778.00;;;19.40
19644;BMP180;9970;-36.854;174.870;2022-11-02T10:18:46;100764.00;;;19.30
19644;BMP180;9970;-36.854;174.870;2022-11-02T10:21:30;100762.00;;;19.40
19644;BMP180;9970;-36.854;174.870;2022-11-02T10:24:23;100758.00;;;19.40
19644;BMP180;9970;-36.854;174.870;2022-11-02T10:27:25;100756.00;;;19.30
19644;BMP180;9970;-36.854;174.870;2022-11-02T10:30:19;100767.00;;;19.30
19644;BMP180;9970;-36.854;174.870;2022-11-02T10:33:32;100761.00;;;19.30
19644;BMP180;9970;-36.854;174.870;2022-11-02T10:51:45;100755.00;;;19.20
19644;BMP180;9970;-36.854;174.870;2022-11-02T10:54:30;100757.00;;;19.20
19644;BMP180;9970;-36.854;174.870;2022-11-02T10:57:28;100749.00;;;19.20
19644;BMP180;9970;-36.854;174.870;2022-11-02T11:00:33;100753.00;;;19.20
19644;BMP180;9970;-36.854;174.870;2022-11-02T11:03:33;100743.00;;;19.20
19644;BMP180;9970;-36.854;174.870;2022-11-02T11:06:11;100752.00;;;19.20
19644;BMP180;9970;-36.854;174.870;2022-11-02T11:08:50;100754.00;;;19.20
19644;BMP180;9970;-36.854;174.870;2022-11-02T11:11:31;100738.00;;;19.20
19644;BMP180;9970;-36.854;174.870;2022-11-02T11:14:23;100738.00;;;19.20
19644;BMP180;9970;-36.854;174.870;2022-11-02T11:17:12;100757.00;;;19.20
19644;BMP180;9970;-36.854;174.870;2022-11-02T11:19:53;100744.00;;;19.20
19644;BMP180;9970;-36.854;174.870;2022-11-02T11:22:40;100757.00;;;19.20
19644;BMP180;9970;-36.854;174.870;2022-11-02T11:25:53;100753.00;;;19.20
19644;BMP180;9970;-36.854;174.870;2022-11-02T11:29:02;100745.00;;;19.20
19644;BMP180;9970;-36.854;174.870;2022-11-02T11:31:20;100748.00;;;19.10
19644;BMP180;9970;-36.854;174.870;2022-11-02T11:33:57;100744.00;;;19.10
19644;BMP180;9970;-36.854;174.870;2022-11-02T11:36:33;100742.00;;;19.10
19644;BMP180;9970;-36.854;174.870;2022-11-02T11:39:30;100741.00;;;19.10
19644;BMP180;9970;-36.854;174.870;2022-11-02T11:42:12;100750.00;;;19.10
19644;BMP180;9970;-36.854;174.870;2022-11-02T11:53:37;100762.00;;;19.10
19644;BMP180;9970;-36.854;174.870;2022-11-02T11:56:17;100744.00;;;19.10
19644;BMP180;9970;-36.854;174.870;2022-11-02T11:58:52;100742.00;;;19.10
19644;BMP180;9970;-36.854;174.870;2022-11-02T12:01:22;100731.00;;;19.10
19644;BMP180;9970;-36.854;174.870;2022-11-02T12:04:02;100733.00;;;19.10
19644;BMP180;9970;-36.854;174.870;2022-11-02T12:24:11;100711.00;;;19.10
19644;BMP180;9970;-36.854;174.870;2022-11-02T12:27:07;100707.00;;;19.10
19644;BMP180;9970;-36.854;174.870;2022-11-02T12:30:17;100711.00;;;19.10
19644;BMP180;9970;-36.854;174.870;2022-11-02T12:33:30;100725.00;;;19.10
19644;BMP180;9970;-36.854;174.870;2022-11-02T12:36:18;100723.00;;;19.00
19644;BMP180;9970;-36.854;174.870;2022-11-02T12:44:44;100735.00;;;19.00
19644;BMP180;9970;-36.854;174.870;2022-11-02T12:50:33;100731.00;;;19.10
19644;BMP180;9970;-36.854;174.870;2022-11-02T12:55:44;100740.00;;;19.10
19644;BMP180;9970;-36.854;174.870;2022-11-02T12:58:24;100721.00;;;19.10
19644;BMP180;9970;-36.854;174.870;2022-11-02T13:01:10;100713.00;;;19.10
19644;BMP180;9970;-36.854;174.870;2022-11-02T13:06:40;100711.00;;;19.00
19644;BMP180;9970;-36.854;174.870;2022-11-02T13:09:34;100717.00;;;19.00
19644;BMP180;9970;-36.854;174.870;2022-11-02T13:12:14;100727.00;;;19.00
19644;BMP180;9970;-36.854;174.870;2022-11-02T13:14:50;100714.00;;;19.00
19644;BMP180;9970;-36.854;174.870;2022-11-02T13:17:43;100716.00;;;19.00
19644;BMP180;9970;-36.854;174.870;2022-11-02T13:20:30;100714.00;;;19.00
19644;BMP180;9970;-36.854;174.870;2022-11-02T13:25:47;100701.00;;;19.00
19644;BMP180;9970;-36.854;174.870;2022-11-02T13:28:51;100691.00;;;19.00
19644;BMP180;9970;-36.854;174.870;2022-11-02T13:31:27;100681.00;;;19.00
19644;BMP180;9970;-36.854;174.870;2022-11-02T13:34:01;100685.00;;;19.00
19644;BMP180;9970;-36.854;174.870;2022-11-02T13:36:38;100679.00;;;19.00
19644;BMP180;9970;-36.854;174.870;2022-11-02T13:39:48;100672.00;;;19.00
19644;BMP180;9970;-36.854;174.870;2022-11-02T13:49:24;100674.00;;;19.00
19644;BMP180;9970;-36.854;174.870;2022-11-02T13:54:27;100655.00;;;19.00
19644;BMP180;9970;-36.854;174.870;2022-11-02T13:57:05;100638.00;;;19.00
19644;BMP180;9970;-36.854;174.870;2022-11-02T14:00:01;100651.00;;;19.00
19644;BMP180;9970;-36.854;174.870;2022-11-02T14:02:53;100641.00;;;19.00
19644;BMP180;9970;-36.854;174.870;2022-11-02T14:05:34;100644.00;;;19.00
19644;BMP180;9970;-36.854;174.870;2022-11-02T14:08:39;100630.00;;;19.00
19644;BMP180;9970;-36.854;174.870;2022-11-02T14:14:38;100634.00;;;19.00
19644;BMP180;9970;-36.854;174.870;2022-11-02T14:17:19;100633.00;;;19.10
19644;BMP180;9970;-36.854;174.870;2022-11-02T14:20:29;100629.00;;;19.00
19644;BMP180;9970;-36.854;174.870;2022-11-02T14:26:28;100611.00;;;19.00
19644;BMP180;9970;-36.854;174.870;2022-11-02T14:28:46;100611.00;;;19.00
19644;BMP180;9970;-36.854;174.870;2022-11-02T14:31:38;100619.00;;;19.00
19644;BMP180;9970;-36.854;174.870;2022-11-02T14:34:31;100615.00;;;19.00
19644;BMP180;9970;-36.854;174.870;2022-11-02T14:40:28;100622.00;;;19.00
19644;BMP180;9970;-36.854;174.870;2022-11-02T14:47:25;100597.00;;;19.00
19644;BMP180;9970;-36.854;174.870;2022-11-02T14:49:51;100590.00;;;19.00
19644;BMP180;9970;-36.854;174.870;2022-11-02T14:52:34;100580.00;;;19.00
19644;BMP180;9970;-36.854;174.870;2022-11-02T14:55:28;100576.00;;;19.00
19644;BMP180;9970;-36.854;174.870;2022-11-02T14:58:20;100573.00;;;19.00
19644;BMP180;9970;-36.854;174.870;2022-11-02T15:01:16;100591.00;;;19.00
19644;BMP180;9970;-36.854;174.870;2022-11-02T15:03:52;100593.00;;;19.00
19644;BMP180;9970;-36.854;174.870;2022-11-02T15:06:49;100611.00;;;19.00
19644;BMP180;9970;-36.854;174.870;2022-11-02T15:09:58;100581.00;;;19.00
19644;BMP180;9970;-36.854;174.870;2022-11-02T15:25:17;100597.00;;;19.00
19644;BMP180;9970;-36.854;174.870;2022-11-02T15:28:18;100605.00;;;19.00
19644;BMP180;9970;-36.854;174.870;2022-11-02T15:31:18;100604.00;;;19.00
19644;BMP180;9970;-36.854;174.870;2022-11-02T15:34:17;100616.00;;;19.00
19644;BMP180;9970;-36.854;174.870;2022-11-02T15:37:15;100617.00;;;19.00
19644;BMP180;9970;-36.854;174.870;2022-11-02T15:40:08;100616.00;;;19.10
19644;BMP180;9970;-36.854;174.870;2022-11-02T15:43:36;100614.00;;;19.10
19644;BMP180;9970;-36.854;174.870;2022-11-02T15:46:24;100604.00;;;19.10
19644;BMP180;9970;-36.854;174.870;2022-11-02T15:49:03;100618.00;;;19.10
19644;BMP180;9970;-36.854;174.870;2022-11-02T15:57:46;100607.00;;;19.10
19644;BMP180;9970;-36.854;174.870;2022-11-02T16:00:21;100596.00;;;19.10
19644;BMP180;9970;-36.854;174.870;2022-11-02T16:03:06;100587.00;;;19.10
19644;BMP180;9970;-36.854;174.870;2022-11-02T16:05:43;100590.00;;;19.10
19644;BMP180;9970;-36.854;174.870;2022-11-02T16:08:33;100583.00;;;19.20
19644;BMP180;9970;-36.854;174.870;2022-11-02T16:11:18;100582.00;;;19.20
19644;BMP180;9970;-36.854;174.870;2022-11-02T16:13:51;100574.00;;;19.20
19644;BMP180;9970;-36.854;174.870;2022-11-02T16:16:29;100571.00;;;19.20
19644;BMP180;9970;-36.854;174.870;2022-11-02T16:19:15;100568.00;;;19.20
19644;BMP180;9970;-36.854;174.870;2022-11-02T16:21:39;100551.00;;;19.20
19644;BMP180;9970;-36.854;174.870;2022-11-02T16:24:12;100551.00;;;19.20
19644;BMP180;9970;-36.854;174.870;2022-11-02T16:26:46;100546.00;;;19.20
19644;BMP180;9970;-36.854;174.870;2022-11-02T16:29:38;100544.00;;;19.20
19644;BMP180;9970;-36.854;174.870;2022-11-02T16:31:56;100561.00;;;19.20
19644;BMP180;9970;-36.854;174.870;2022-11-02T16:34:33;100557.00;;;19.20
19644;BMP180;9970;-36.854;174.870;2022-11-02T16:37:14;100562.00;;;19.20
19644;BMP180;9970;-36.854;174.870;2022-11-02T16:39:51;100567.00;;;19.20
19644;BMP180;9970;-36.854;174.870;2022-11-02T16:42:52;100570.00;;;19.20
19644;BMP180;9970;-36.854;174.870;2022-11-02T16:45:34;100561.00;;;19.20
19644;BMP180;9970;-36.854;174.870;2022-11-02T16:48:26;100547.00;;;19.20
19644;BMP180;9970;-36.854;174.870;2022-11-02T16:51:17;100553.00;;;19.20
19644;BMP180;9970;-36.854;174.870;2022-11-02T16:53:52;100546.00;;;19.10
19644;BMP180;9970;-36.854;174.870;2022-11-02T16:56:29;100545.00;;;19.20
19644;BMP180;9970;-36.854;174.870;2022-11-02T16:59:11;100561.00;;;19.20
19644;BMP180;9970;-36.854;174.870;2022-11-02T17:01:40;100546.00;;;19.20
19644;BMP180;9970;-36.854;174.870;2022-11-02T17:04:39;100553.00;;;19.20
19644;BMP180;9970;-36.854;174.870;2022-11-02T17:09:56;100556.00;;;19.20
19644;BMP180;9970;-36.854;174.870;2022-11-02T17:12:34;100564.00;;;19.20
19644;BMP180;9970;-36.854;174.870;2022-11-02T17:15:16;100559.00;;;19.20
19644;BMP180;9970;-36.854;174.870;2022-11-02T17:21:24;100592.00;;;19.20
19644;BMP180;9970;-36.854;174.870;2022-11-02T17:24:23;100590.00;;;19.20
19644;BMP180;9970;-36.854;174.870;2022-11-02T17:26:39;100586.00;;;19.20
19644;BMP180;9970;-36.854;174.870;2022-11-02T17:29:27;100603.00;;;19.30
19644;BMP180;9970;-36.854;174.870;2022-11-02T17:32:02;100610.00;;;19.30
19644;BMP180;9970;-36.854;174.870;2022-11-02T17:34:36;100616.00;;;19.30
19644;BMP180;9970;-36.854;174.870;2022-11-02T17:37:27;100606.00;;;19.30
19644;BMP180;9970;-36.854;174.870;2022-11-02T17:40:05;100598.00;;;19.30
19644;BMP180;9970;-36.854;174.870;2022-11-02T17:42:38;100586.00;;;19.30